Time;durP1;ratioP1;P1;durP2;ratioP2;P2;SDS_P1;SDS_P2;PMS_P1;PMS_P2;Temp;Humidity;BMP_temperature;BMP_pressure;BME280_temperature;BME280_humidity;BME280_pressure;Samples;Min_cycle;Max_cycle;Signal;HPM_P1;HPM_P2
2023/08/28 00:00:04;;;;;;;0.25;0.22;;;15.70;99.90;;;;;;4117211;28;20178;-90
2023/08/28 00:02:06;;;;;;;1.00;0.30;;;15.70;99.90;;;;;;4116215;28;20560;-89
2023/08/28 00:04:07;;;;;;;3.13;0.20;;;15.80;99.90;;;;;;4115437;28;20449;-91
2023/08/28 00:06:08;;;;;;;0.30;0.30;;;15.90;99.90;;;;;;4115523;28;20175;-94
2023/08/28 00:08:10;;;;;;;0.30;0.30;;;16.00;99.90;;;;;;4116730;28;20310;-93
2023/08/28 00:10:10;;;;;;;1.02;0.35;;;16.00;99.90;;;;;;4099733;29;20159;-90
2023/08/28 00:12:11;;;;;;;0.55;0.30;;;16.10;99.90;;;;;;4099686;28;20334;-95
2023/08/28 00:14:12;;;;;;;0.70;0.50;;;16.10;99.90;;;;;;4115525;28;20181;-90
2023/08/28 00:16:13;;;;;;;0.30;0.22;;;16.00;99.90;;;;;;4099562;28;20174;-90
2023/08/28 00:18:13;;;;;;;0.25;0.22;;;16.00;99.90;;;;;;4115737;28;20195;-94
2023/08/28 00:20:16;;;;;;;0.40;0.30;;;15.90;99.90;;;;;;4115588;28;20220;-91
2023/08/28 00:22:16;;;;;;;5.18;0.82;;;15.70;99.90;;;;;;4099143;28;20285;-92
2023/08/28 00:24:17;;;;;;;1.23;0.40;;;15.70;99.90;;;;;;4115363;28;20252;-88
2023/08/28 00:26:18;;;;;;;1.10;0.40;;;15.70;99.90;;;;;;4099234;29;20226;-90
2023/08/28 00:28:18;;;;;;;1.52;0.43;;;15.70;99.90;;;;;;4099480;29;20313;-90
2023/08/28 00:30:19;;;;;;;5.45;0.63;;;15.60;99.90;;;;;;4115811;28;20261;-92
2023/08/28 00:32:20;;;;;;;0.65;0.28;;;15.60;99.90;;;;;;4100411;28;20226;-91
2023/08/28 00:34:21;;;;;;;0.93;0.70;;;15.60;99.90;;;;;;4118910;28;20177;-91
2023/08/28 00:36:21;;;;;;;0.32;0.30;;;15.50;99.90;;;;;;4118558;28;20181;-90
2023/08/28 00:38:22;;;;;;;4.47;0.40;;;15.50;99.90;;;;;;4102474;29;20171;-90
2023/08/28 00:40:23;;;;;;;0.77;0.47;;;15.50;99.90;;;;;;4102711;29;20569;-89
2023/08/28 00:42:24;;;;;;;0.20;0.20;;;15.50;99.90;;;;;;4102416;28;20198;-90
2023/08/28 00:44:25;;;;;;;3.33;0.50;;;15.50;99.90;;;;;;4102738;28;20265;-90
2023/08/28 00:46:26;;;;;;;1.15;0.68;;;15.50;99.90;;;;;;4103145;29;20174;-90
2023/08/28 00:48:28;;;;;;;5.18;0.65;;;15.50;99.90;;;;;;4119285;28;20185;-96
2023/08/28 00:50:28;;;;;;;2.30;0.60;;;15.50;99.90;;;;;;4119019;28;20171;-90
2023/08/28 00:52:30;;;;;;;0.55;0.55;;;15.60;99.90;;;;;;4120064;28;20332;-91
2023/08/28 00:54:31;;;;;;;0.40;0.40;;;15.50;99.90;;;;;;4104455;28;20593;-92
2023/08/28 00:56:31;;;;;;;0.38;0.30;;;15.50;99.90;;;;;;4110953;29;20179;-90
2023/08/28 00:58:32;;;;;;;0.57;0.57;;;15.60;99.90;;;;;;4122383;28;20188;-92
2023/08/28 01:00:33;;;;;;;0.45;0.40;;;15.60;99.90;;;;;;4102364;28;20186;-91
2023/08/28 01:02:34;;;;;;;1.05;0.65;;;15.70;99.90;;;;;;4118223;28;20233;-90
2023/08/28 01:04:35;;;;;;;0.80;0.40;;;15.70;99.90;;;;;;4102415;28;20217;-90
2023/08/28 01:06:56;;;;;;;0.70;0.40;;;15.80;99.90;;;;;;4118301;28;20205;-90
2023/08/28 01:09:06;;;;;;;4.32;0.82;;;15.70;99.90;;;;;;4102107;28;20186;-90
2023/08/28 01:11:30;;;;;;;0.82;0.35;;;15.80;99.90;;;;;;4101788;28;20175;-90
2023/08/28 01:13:41;;;;;;;0.95;0.63;;;15.80;99.90;;;;;;4101981;28;20602;-95
2023/08/28 01:15:42;;;;;;;1.95;0.45;;;15.90;99.90;;;;;;4102257;28;20174;-91
2023/08/28 01:17:44;;;;;;;0.50;0.30;;;15.90;99.90;;;;;;4117996;28;20182;-90
2023/08/28 01:19:45;;;;;;;0.57;0.40;;;16.00;99.90;;;;;;4101876;28;20174;-90
2023/08/28 01:21:50;;;;;;;1.45;0.52;;;16.10;99.90;;;;;;4117688;28;20660;-94
2023/08/28 01:24:03;;;;;;;3.20;1.15;;;16.10;99.90;;;;;;4101926;28;20573;-89
2023/08/28 01:26:04;;;;;;;0.57;0.40;;;16.00;99.90;;;;;;4101928;28;20525;-90
2023/08/28 01:28:05;;;;;;;0.47;0.38;;;16.00;99.90;;;;;;4117581;28;20830;-93
2023/08/28 01:30:09;;;;;;;0.82;0.60;;;16.00;99.90;;;;;;4102038;29;20219;-89
2023/08/28 01:32:10;;;;;;;1.55;0.90;;;16.10;99.90;;;;;;4117535;28;20728;-96
2023/08/28 01:34:11;;;;;;;1.30;0.93;;;16.20;99.90;;;;;;4118513;28;20170;-95
2023/08/28 01:36:47;;;;;;;0.68;0.45;;;16.20;99.90;;;;;;4102449;29;20246;-93
2023/08/28 01:38:56;;;;;;;0.90;0.47;;;16.10;99.90;;;;;;4101308;28;20178;-89
2023/08/28 01:41:09;;;;;;;0.90;0.40;;;16.00;99.90;;;;;;4095871;28;20206;-92
2023/08/28 01:43:13;;;;;;;2.75;0.63;;;15.80;99.90;;;;;;4102411;28;20333;-95
2023/08/28 01:45:15;;;;;;;1.20;0.60;;;15.90;99.90;;;;;;4118051;28;20277;-90
2023/08/28 01:47:16;;;;;;;0.73;0.35;;;15.80;99.90;;;;;;4101736;28;20175;-90
2023/08/28 01:49:17;;;;;;;1.60;0.47;;;15.70;99.90;;;;;;4118112;28;20178;-90
2023/08/28 01:51:18;;;;;;;1.23;0.50;;;15.70;99.90;;;;;;4101287;28;20249;-90
2023/08/28 01:53:20;;;;;;;0.55;0.50;;;15.70;99.90;;;;;;4117795;28;20176;-90
2023/08/28 01:55:44;;;;;;;2.33;0.70;;;15.70;99.90;;;;;;4101394;28;20218;-93
2023/08/28 01:57:45;;;;;;;1.05;0.30;;;15.60;99.90;;;;;;4091601;29;20195;-90
2023/08/28 01:59:46;;;;;;;0.52;0.47;;;15.50;99.90;;;;;;4117060;28;20270;-95
2023/08/28 02:01:46;;;;;;;0.40;0.32;;;15.40;99.90;;;;;;4101023;28;20199;-89
2023/08/28 02:03:47;;;;;;;1.25;0.93;;;15.50;99.90;;;;;;4101004;29;20253;-94
2023/08/28 02:05:48;;;;;;;0.73;0.40;;;15.40;99.90;;;;;;4117203;28;20163;-91
2023/08/28 02:07:49;;;;;;;2.03;0.65;;;15.40;99.90;;;;;;4101331;29;20262;-91
2023/08/28 02:09:50;;;;;;;1.02;0.52;;;15.30;99.90;;;;;;4117558;28;20194;-90
2023/08/28 02:11:51;;;;;;;0.85;0.55;;;15.30;99.90;;;;;;4101450;28;20724;-91
2023/08/28 02:13:52;;;;;;;0.47;0.47;;;15.40;99.90;;;;;;4117817;28;20178;-89
2023/08/28 02:15:53;;;;;;;0.60;0.50;;;15.30;99.90;;;;;;4102195;29;20159;-90
2023/08/28 02:17:54;;;;;;;0.73;0.52;;;15.40;99.90;;;;;;4101715;28;20210;-90
2023/08/28 02:19:54;;;;;;;0.57;0.45;;;15.30;99.90;;;;;;4118000;28;20249;-90
2023/08/28 02:22:00;;;;;;;0.52;0.52;;;15.40;99.90;;;;;;4102116;28;20621;-91
2023/08/28 02:24:00;;;;;;;1.05;0.52;;;15.40;99.90;;;;;;4117205;28;20210;-90
2023/08/28 02:26:01;;;;;;;0.50;0.43;;;15.40;99.90;;;;;;4101601;29;20270;-90
2023/08/28 02:28:02;;;;;;;1.50;0.57;;;15.50;99.90;;;;;;4101077;28;20241;-90
2023/08/28 02:30:04;;;;;;;0.77;0.55;;;15.50;99.90;;;;;;4117026;28;20186;-90
2023/08/28 02:32:05;;;;;;;0.43;0.38;;;15.50;99.90;;;;;;4101164;28;20199;-93
2023/08/28 02:34:06;;;;;;;0.82;0.50;;;15.50;99.90;;;;;;4101568;28;20286;-89
2023/08/28 02:36:07;;;;;;;4.95;0.65;;;15.60;99.90;;;;;;4117475;28;20166;-89
2023/08/28 02:38:10;;;;;;;2.38;0.60;;;15.70;99.90;;;;;;4116952;28;20174;-90
2023/08/28 02:40:11;;;;;;;1.35;0.60;;;15.80;99.90;;;;;;4117185;28;20200;-95
2023/08/28 02:42:12;;;;;;;0.30;0.30;;;15.70;99.90;;;;;;4100916;28;20215;-90
2023/08/28 02:44:13;;;;;;;0.73;0.40;;;15.70;99.90;;;;;;4100633;29;20265;-95
2023/08/28 02:46:14;;;;;;;1.10;0.60;;;15.70;99.90;;;;;;4100454;28;20174;-93
2023/08/28 02:48:15;;;;;;;0.80;0.47;;;15.70;99.90;;;;;;4100802;29;20182;-90
2023/08/28 02:50:15;;;;;;;0.60;0.60;;;15.80;99.90;;;;;;4101080;29;20261;-91
2023/08/28 02:52:17;;;;;;;0.73;0.55;;;15.80;99.90;;;;;;4116361;28;20605;-90
2023/08/28 02:54:18;;;;;;;2.05;1.00;;;15.70;99.90;;;;;;4116584;28;20258;-90
2023/08/28 02:56:24;;;;;;;1.95;0.50;;;15.70;99.90;;;;;;4115964;28;20174;-90
2023/08/28 02:58:25;;;;;;;1.23;0.52;;;15.70;99.90;;;;;;4116805;28;20182;-89
2023/08/28 03:00:26;;;;;;;0.57;0.57;;;15.80;99.90;;;;;;4117153;28;20173;-90
2023/08/28 03:02:27;;;;;;;1.40;0.88;;;15.90;99.90;;;;;;4100961;28;20191;-91
2023/08/28 03:04:28;;;;;;;0.95;0.63;;;15.90;99.90;;;;;;4116806;28;20204;-90
2023/08/28 03:06:28;;;;;;;0.77;0.50;;;15.70;99.90;;;;;;4117491;28;20236;-90
2023/08/28 03:08:29;;;;;;;1.15;0.80;;;15.70;99.90;;;;;;4116702;28;20179;-90
2023/08/28 03:10:31;;;;;;;2.70;1.05;;;15.60;99.90;;;;;;4116658;28;20619;-89
2023/08/28 03:12:32;;;;;;;0.95;0.50;;;15.60;99.90;;;;;;4116404;28;20728;-90
2023/08/28 03:14:32;;;;;;;1.38;0.57;;;15.60;99.90;;;;;;4116390;28;20174;-92
2023/08/28 03:16:33;;;;;;;1.05;0.50;;;15.70;99.90;;;;;;4100381;29;20171;-92
2023/08/28 03:18:34;;;;;;;0.70;0.57;;;15.60;99.90;;;;;;4100705;29;20182;-90
2023/08/28 03:20:35;;;;;;;0.90;0.30;;;15.60;99.90;;;;;;4100303;29;20214;-95
2023/08/28 03:22:36;;;;;;;1.50;0.60;;;15.50;99.90;;;;;;4115651;28;20194;-91
2023/08/28 03:24:36;;;;;;;0.98;0.60;;;15.50;99.90;;;;;;4100334;29;20229;-90
2023/08/28 03:26:37;;;;;;;1.42;0.90;;;15.60;99.90;;;;;;4100202;28;20174;-90
2023/08/28 03:28:38;;;;;;;1.55;0.70;;;15.60;99.90;;;;;;4115991;28;20698;-90
2023/08/28 03:30:39;;;;;;;1.08;0.60;;;15.60;99.90;;;;;;4116219;28;20173;-90
2023/08/28 03:32:40;;;;;;;1.30;0.68;;;15.60;99.90;;;;;;4117313;28;20194;-90
2023/08/28 03:34:41;;;;;;;2.33;0.60;;;15.50;99.90;;;;;;4100212;28;20629;-89
2023/08/28 03:36:42;;;;;;;1.20;0.55;;;15.50;99.90;;;;;;4100443;29;20222;-92
2023/08/28 03:38:43;;;;;;;0.63;0.52;;;15.40;99.90;;;;;;4100130;29;20269;-89
2023/08/28 03:40:45;;;;;;;2.08;0.43;;;15.40;99.90;;;;;;4100377;29;20640;-89
2023/08/28 03:42:45;;;;;;;0.80;0.60;;;15.50;99.90;;;;;;4100310;28;20550;-91
2023/08/28 03:44:46;;;;;;;0.85;0.57;;;15.40;99.90;;;;;;4118216;28;20274;-92
2023/08/28 03:46:47;;;;;;;1.63;0.55;;;15.40;99.90;;;;;;4108041;29;20187;-90
2023/08/28 03:48:47;;;;;;;0.77;0.43;;;15.30;99.90;;;;;;4102448;29;20254;-89
2023/08/28 03:50:48;;;;;;;1.02;0.68;;;15.20;99.90;;;;;;4099995;29;20167;-90
2023/08/28 03:52:49;;;;;;;1.65;0.38;;;15.10;99.90;;;;;;4099649;28;20561;-94
2023/08/28 03:54:51;;;;;;;0.73;0.65;;;15.10;99.90;;;;;;4100048;28;20181;-90
2023/08/28 03:56:53;;;;;;;0.60;0.55;;;15.10;99.90;;;;;;4100169;28;20198;-90
2023/08/28 03:58:54;;;;;;;0.50;0.50;;;15.00;99.90;;;;;;4099856;28;20186;-92
2023/08/28 04:00:55;;;;;;;1.13;0.60;;;15.10;99.90;;;;;;4099861;28;20171;-88
2023/08/28 04:02:56;;;;;;;7.85;0.90;;;15.20;99.90;;;;;;4099417;28;20213;-89
2023/08/28 04:04:56;;;;;;;0.80;0.60;;;15.20;99.90;;;;;;4115601;28;20289;-89
2023/08/28 04:06:58;;;;;;;0.70;0.50;;;15.20;99.90;;;;;;4098608;28;20590;-91
2023/08/28 04:08:59;;;;;;;0.75;0.60;;;15.30;99.90;;;;;;4099721;28;20181;-91
2023/08/28 04:11:00;;;;;;;1.30;0.80;;;15.30;99.90;;;;;;4099416;28;20167;-90
2023/08/28 04:13:01;;;;;;;1.42;0.50;;;15.30;99.90;;;;;;4115243;28;20273;-90
2023/08/28 04:15:03;;;;;;;1.27;0.65;;;15.30;99.90;;;;;;4099289;29;20212;-90
2023/08/28 04:17:05;;;;;;;0.90;0.63;;;15.50;99.90;;;;;;4099448;28;20661;-89
2023/08/28 04:19:06;;;;;;;1.05;0.57;;;15.50;99.90;;;;;;4099420;28;20186;-90
2023/08/28 04:21:07;;;;;;;2.30;0.63;;;15.50;99.90;;;;;;4115291;28;20185;-90
2023/08/28 04:23:07;;;;;;;1.60;0.80;;;15.50;99.90;;;;;;4099320;28;20198;-89
2023/08/28 04:25:09;;;;;;;1.63;0.80;;;15.50;99.90;;;;;;4115189;28;20174;-89
2023/08/28 04:27:09;;;;;;;0.73;0.70;;;15.50;99.90;;;;;;4099108;28;20229;-93
2023/08/28 04:29:10;;;;;;;1.20;0.55;;;15.40;99.90;;;;;;4115450;28;20194;-92
2023/08/28 04:31:13;;;;;;;1.42;0.77;;;15.40;99.90;;;;;;4099345;28;20183;-89
2023/08/28 04:33:14;;;;;;;1.33;0.85;;;15.40;99.90;;;;;;4115333;28;20170;-89
2023/08/28 04:35:15;;;;;;;1.00;0.90;;;15.50;99.90;;;;;;4115592;28;20173;-90
2023/08/28 04:37:16;;;;;;;0.60;0.50;;;15.50;99.90;;;;;;4099528;28;20167;-90
2023/08/28 04:39:17;;;;;;;1.50;0.60;;;15.50;99.90;;;;;;4098908;28;20178;-90
2023/08/28 04:41:18;;;;;;;1.05;0.80;;;15.50;99.90;;;;;;4114955;28;20269;-92
2023/08/28 04:43:18;;;;;;;3.53;0.80;;;15.40;99.90;;;;;;4115208;28;20245;-90
2023/08/28 04:45:19;;;;;;;0.95;0.80;;;15.30;99.90;;;;;;4115108;28;20584;-91
2023/08/28 04:47:21;;;;;;;0.90;0.60;;;15.30;99.90;;;;;;4099165;28;20252;-90
2023/08/28 04:49:22;;;;;;;0.85;0.60;;;15.30;99.90;;;;;;4099140;29;20181;-90
2023/08/28 04:51:22;;;;;;;1.65;0.63;;;15.30;99.90;;;;;;4115058;28;20569;-90
2023/08/28 04:53:23;;;;;;;0.60;0.60;;;15.30;99.90;;;;;;4099134;29;20677;-92
2023/08/28 04:55:24;;;;;;;1.15;0.70;;;15.30;99.90;;;;;;4099051;29;20186;-90
2023/08/28 04:57:25;;;;;;;0.77;0.45;;;15.20;99.90;;;;;;4115273;28;20174;-91
2023/08/28 04:59:25;;;;;;;0.88;0.55;;;15.20;99.90;;;;;;4099256;29;20175;-90
2023/08/28 05:01:26;;;;;;;1.42;0.85;;;15.20;99.90;;;;;;4114823;28;20276;-89
2023/08/28 05:03:27;;;;;;;2.45;0.85;;;15.10;99.90;;;;;;4114939;28;20190;-92
2023/08/28 05:05:28;;;;;;;1.45;0.80;;;15.00;99.90;;;;;;4099043;28;20225;-90
2023/08/28 05:07:28;;;;;;;1.15;0.90;;;14.90;99.90;;;;;;4099412;28;20270;-89
2023/08/28 05:09:29;;;;;;;4.93;1.02;;;14.90;99.90;;;;;;4115010;28;20301;-90
2023/08/28 05:11:30;;;;;;;4.25;0.90;;;14.70;99.90;;;;;;4114884;28;20279;-90
2023/08/28 05:13:31;;;;;;;1.95;0.90;;;14.70;99.90;;;;;;4099016;29;20203;-90
2023/08/28 05:15:31;;;;;;;3.92;1.00;;;14.80;99.90;;;;;;4114827;28;20681;-90
2023/08/28 05:17:33;;;;;;;1.88;0.95;;;14.80;99.90;;;;;;4099040;29;20178;-90
2023/08/28 05:19:33;;;;;;;0.90;0.80;;;15.00;99.90;;;;;;4101586;28;20179;-93
2023/08/28 05:21:34;;;;;;;0.93;0.73;;;15.00;99.90;;;;;;4117885;28;20228;-89
2023/08/28 05:23:35;;;;;;;1.20;0.90;;;15.10;99.90;;;;;;4102160;29;20736;-90
2023/08/28 05:25:36;;;;;;;1.30;0.85;;;15.10;99.90;;;;;;4117948;28;20242;-90
2023/08/28 05:27:36;;;;;;;0.90;0.70;;;15.10;99.90;;;;;;4102028;29;20183;-90
2023/08/28 05:29:38;;;;;;;1.00;0.70;;;15.20;99.90;;;;;;4101958;28;20171;-89
2023/08/28 05:31:39;;;;;;;2.10;0.90;;;15.20;99.90;;;;;;4101879;29;20203;-89
2023/08/28 05:33:42;;;;;;;1.75;1.13;;;15.00;99.90;;;;;;4102205;28;20171;-89
2023/08/28 05:35:43;;;;;;;0.57;0.50;;;14.90;99.90;;;;;;4101634;29;20179;-87
2023/08/28 05:37:44;;;;;;;0.93;0.60;;;14.80;99.90;;;;;;4101911;29;20242;-90
2023/08/28 05:39:44;;;;;;;4.93;1.13;;;14.90;99.90;;;;;;4101580;29;20174;-90
2023/08/28 05:41:45;;;;;;;1.02;0.55;;;15.00;99.90;;;;;;4117340;28;20208;-90
2023/08/28 05:43:46;;;;;;;1.38;0.95;;;15.00;99.90;;;;;;4101748;29;20262;-90
2023/08/28 05:45:47;;;;;;;0.90;0.75;;;15.10;99.90;;;;;;4101547;29;20171;-89
2023/08/28 05:47:48;;;;;;;2.20;0.70;;;15.20;99.90;;;;;;4117733;28;20185;-90
2023/08/28 05:49:49;;;;;;;1.40;0.73;;;15.30;99.90;;;;;;4101832;29;20221;-90
2023/08/28 05:51:49;;;;;;;1.50;0.90;;;15.40;99.90;;;;;;4117530;28;20212;-89
2023/08/28 05:53:50;;;;;;;1.50;1.00;;;15.40;99.90;;;;;;4102196;28;20171;-91
2023/08/28 05:55:51;;;;;;;1.65;0.98;;;15.40;99.90;;;;;;4118728;28;20170;-89
2023/08/28 05:57:53;;;;;;;0.65;0.57;;;15.40;99.90;;;;;;4101390;28;20171;-90
2023/08/28 05:59:53;;;;;;;1.27;0.70;;;15.50;99.90;;;;;;4101861;28;20684;-90
2023/08/28 06:01:54;;;;;;;0.95;0.77;;;15.40;99.90;;;;;;4124344;28;20197;-90
2023/08/28 06:03:56;;;;;;;1.50;1.00;;;15.50;99.90;;;;;;4133782;28;20206;-89
2023/08/28 06:05:57;;;;;;;1.17;1.00;;;15.50;99.90;;;;;;4102540;29;20211;-90
2023/08/28 06:07:58;;;;;;;1.17;0.95;;;15.50;99.90;;;;;;4102130;28;20185;-89
2023/08/28 06:09:58;;;;;;;2.78;1.23;;;15.50;99.90;;;;;;4117214;28;20174;-90
2023/08/28 06:11:59;;;;;;;1.40;0.82;;;15.60;99.90;;;;;;4117129;28;20208;-90
2023/08/28 06:14:00;;;;;;;0.95;0.70;;;15.60;99.90;;;;;;4101191;29;20167;-90
2023/08/28 06:16:02;;;;;;;1.27;1.00;;;15.60;99.90;;;;;;4101138;28;20177;-90
2023/08/28 06:18:04;;;;;;;1.02;0.82;;;15.70;99.90;;;;;;4116825;28;20174;-90
2023/08/28 06:20:08;;;;;;;2.47;1.23;;;15.80;99.90;;;;;;4101347;28;20179;-89
2023/08/28 06:22:09;;;;;;;2.30;0.85;;;16.00;99.90;;;;;;4101545;28;20190;-89
2023/08/28 06:24:11;;;;;;;1.45;0.93;;;16.00;99.90;;;;;;4116887;28;20241;-94
2023/08/28 06:26:11;;;;;;;2.05;1.20;;;16.10;99.90;;;;;;4116768;28;20174;-90
2023/08/28 06:28:13;;;;;;;2.78;1.38;;;16.00;99.90;;;;;;4116919;28;20242;-89
2023/08/28 06:30:14;;;;;;;1.33;0.90;;;16.10;99.90;;;;;;4099874;28;20189;-90
2023/08/28 06:32:15;;;;;;;0.90;0.82;;;16.10;99.90;;;;;;4100669;28;20274;-89
2023/08/28 06:34:16;;;;;;;1.90;1.08;;;16.20;99.90;;;;;;4100880;29;20178;-90
2023/08/28 06:36:16;;;;;;;3.28;0.80;;;16.30;99.90;;;;;;4100869;28;20186;-90
2023/08/28 06:38:17;;;;;;;1.83;1.23;;;16.40;99.90;;;;;;4100798;28;20183;-91
2023/08/28 06:40:18;;;;;;;1.85;1.20;;;16.50;99.90;;;;;;4119471;28;20173;-89
2023/08/28 06:42:19;;;;;;;2.33;1.20;;;16.60;99.90;;;;;;4123160;28;20198;-91
2023/08/28 06:44:20;;;;;;;9.00;1.73;;;16.60;99.90;;;;;;4106489;29;20258;-90
2023/08/28 06:46:21;;;;;;;1.27;0.93;;;16.50;99.90;;;;;;4117405;28;20178;-93
2023/08/28 06:48:21;;;;;;;1.40;1.00;;;16.60;99.90;;;;;;4100944;28;20178;-91
2023/08/28 06:50:22;;;;;;;1.73;1.00;;;16.60;99.90;;;;;;4100850;28;20175;-91
2023/08/28 06:52:23;;;;;;;1.80;1.30;;;16.80;99.90;;;;;;4116472;28;20300;-90
2023/08/28 06:54:24;;;;;;;1.25;0.98;;;16.80;99.90;;;;;;4116518;28;20182;-90
2023/08/28 06:56:25;;;;;;;1.73;1.17;;;16.90;99.90;;;;;;4101659;28;20620;-92
2023/08/28 06:58:25;;;;;;;6.18;1.20;;;17.10;99.90;;;;;;4116906;28;20218;-90
2023/08/28 07:00:26;;;;;;;1.40;1.00;;;17.20;99.90;;;;;;4100202;29;20171;-89
2023/08/28 07:02:30;;;;;;;1.13;0.70;;;17.30;99.90;;;;;;4116110;28;20214;-91
2023/08/28 07:04:31;;;;;;;1.63;0.95;;;17.40;99.90;;;;;;4116360;28;20198;-90
2023/08/28 07:06:32;;;;;;;0.90;0.77;;;17.40;99.90;;;;;;4100326;29;20488;-91
2023/08/28 07:08:32;;;;;;;1.25;0.90;;;17.30;99.90;;;;;;4116277;28;20174;-89
2023/08/28 07:10:33;;;;;;;3.42;1.20;;;17.60;99.90;;;;;;4100189;28;20602;-91
2023/08/28 07:12:34;;;;;;;3.28;1.25;;;17.90;99.90;;;;;;4115925;28;20695;-95
2023/08/28 07:14:34;;;;;;;1.52;1.00;;;18.80;99.90;;;;;;4100133;28;20174;-91
2023/08/28 07:16:35;;;;;;;0.80;0.80;;;20.20;99.90;;;;;;4099739;29;20277;-92
2023/08/28 07:18:36;;;;;;;3.00;1.05;;;21.70;99.90;;;;;;4115477;28;20170;-91
2023/08/28 07:20:37;;;;;;;3.40;1.73;;;23.10;99.90;;;;;;4115908;28;20548;-91
2023/08/28 07:22:37;;;;;;;1.75;0.77;;;24.20;99.90;;;;;;4115539;28;20190;-91
2023/08/28 07:24:38;;;;;;;2.17;1.20;;;24.80;99.90;;;;;;4116074;28;20262;-93
2023/08/28 07:26:39;;;;;;;1.67;0.90;;;25.90;99.90;;;;;;4100083;29;20171;-91
2023/08/28 07:28:40;;;;;;;0.82;0.65;;;26.40;99.90;;;;;;4100141;29;20550;-92
2023/08/28 07:30:41;;;;;;;0.85;0.68;;;27.60;99.90;;;;;;4115998;28;20663;-91
2023/08/28 07:32:42;;;;;;;1.52;1.00;;;27.60;99.90;;;;;;4115518;28;20194;-91
2023/08/28 07:34:43;;;;;;;1.33;0.73;;;28.40;99.90;;;;;;4115762;28;20344;-91
2023/08/28 07:36:44;;;;;;;1.98;1.05;;;29.20;99.90;;;;;;4099467;29;20190;-91
2023/08/28 07:38:45;;;;;;;1.33;0.77;;;29.60;99.90;;;;;;4099645;28;20175;-92
2023/08/28 07:40:49;;;;;;;1.50;0.93;;;29.10;99.90;;;;;;4115504;28;20177;-91
2023/08/28 07:42:50;;;;;;;2.17;0.95;;;28.50;99.90;;;;;;4099671;28;20198;-91
2023/08/28 07:44:50;;;;;;;0.90;0.80;;;29.00;99.90;;;;;;4115798;28;20205;-92
2023/08/28 07:46:51;;;;;;;1.65;1.00;;;29.30;99.90;;;;;;4099735;29;20629;-90
2023/08/28 07:48:52;;;;;;;1.85;0.90;;;28.90;99.90;;;;;;4099369;29;20194;-91
2023/08/28 07:50:53;;;;;;;1.55;0.60;;;28.60;99.90;;;;;;4099393;29;20178;-91
2023/08/28 07:52:54;;;;;;;0.80;0.60;;;28.70;99.90;;;;;;4099534;28;20593;-96
2023/08/28 07:54:54;;;;;;;0.73;0.65;;;29.30;99.90;;;;;;4099776;28;20194;-91
2023/08/28 07:56:55;;;;;;;1.33;0.60;;;29.80;99.90;;;;;;4099314;28;20506;-92
2023/08/28 07:58:56;;;;;;;1.80;0.70;;;29.80;99.90;;;;;;4099645;29;20185;-92
2023/08/28 08:00:57;;;;;;;1.35;0.63;;;30.20;99.90;;;;;;4115153;28;20233;-92
2023/08/28 08:03:00;;;;;;;0.85;0.75;;;30.00;99.90;;;;;;4098714;28;20206;-91
2023/08/28 08:05:00;;;;;;;1.17;0.80;;;30.50;99.90;;;;;;4114871;28;20557;-90
2023/08/28 08:07:01;;;;;;;0.90;0.77;;;30.50;99.90;;;;;;4115436;28;20181;-91
2023/08/28 08:09:02;;;;;;;1.27;0.73;;;30.10;99.90;;;;;;4099598;29;20174;-91
2023/08/28 08:11:03;;;;;;;0.85;0.60;;;30.10;99.90;;;;;;4115404;28;20212;-91
2023/08/28 08:13:04;;;;;;;0.88;0.52;;;29.90;99.90;;;;;;4098890;29;20182;-91
2023/08/28 08:15:08;;;;;;;0.70;0.70;;;29.70;99.90;;;;;;4115174;28;20188;-92
2023/08/28 08:17:09;;;;;;;0.80;0.60;;;30.40;99.90;;;;;;4099097;28;20189;-92
2023/08/28 08:19:10;;;;;;;0.90;0.75;;;29.60;99.90;;;;;;4114689;28;20178;-92
2023/08/28 08:21:10;;;;;;;2.25;0.50;;;29.80;99.90;;;;;;4099178;28;20190;-92
2023/08/28 08:23:11;;;;;;;1.08;0.60;;;30.60;99.90;;;;;;4114978;28;20205;-93
2023/08/28 08:25:13;;;;;;;1.02;0.30;;;30.50;99.90;;;;;;4098799;28;20339;-91
2023/08/28 08:27:13;;;;;;;1.13;0.40;;;30.20;99.90;;;;;;4114914;28;20181;-92
2023/08/28 08:29:14;;;;;;;1.02;0.38;;;30.50;99.90;;;;;;4114668;28;20169;-92
2023/08/28 08:31:15;;;;;;;1.52;0.40;;;30.50;99.90;;;;;;4115052;28;20186;-92
2023/08/28 08:33:17;;;;;;;5.63;0.60;;;30.10;99.90;;;;;;4098758;29;20182;-91
2023/08/28 08:35:18;;;;;;;0.45;0.40;;;29.60;99.90;;;;;;4098881;29;20170;-91
2023/08/28 08:37:19;;;;;;;0.55;0.45;;;29.50;99.90;;;;;;4099066;29;20222;-91
2023/08/28 08:39:21;;;;;;;0.25;0.25;;;28.30;99.90;;;;;;4098840;29;20170;-91
2023/08/28 08:41:22;;;;;;;0.73;0.20;;;28.30;99.90;;;;;;4098614;28;20229;-91
2023/08/28 08:43:23;;;;;;;1.00;0.22;;;27.30;99.90;;;;;;4114825;28;20217;-91
2023/08/28 08:45:29;;;;;;;0.30;0.20;;;27.40;99.90;;;;;;4098848;29;20171;-91
2023/08/28 08:47:31;;;;;;;0.30;0.10;;;27.10;99.90;;;;;;4098790;28;20178;-91
2023/08/28 08:49:33;;;;;;;0.28;0.20;;;27.40;99.90;;;;;;4098855;28;20253;-91
2023/08/28 08:51:39;;;;;;;0.80;0.20;;;27.50;99.90;;;;;;4099028;28;20237;-92
2023/08/28 08:53:45;;;;;;;3.67;0.85;;;27.80;99.90;;;;;;4100454;28;20175;-91
2023/08/28 08:55:47;;;;;;;0.40;0.40;;;27.80;99.90;;;;;;4105309;28;20679;-95
2023/08/28 08:57:53;;;;;;;1.25;0.38;;;27.30;99.90;;;;;;4105459;28;20178;-95
2023/08/28 08:59:54;;;;;;;0.17;0.17;;;28.70;99.90;;;;;;4106613;28;20171;-93
2023/08/28 09:01:57;;;;;;;0.60;0.40;;;29.40;99.90;;;;;;4119622;28;20746;-94
2023/08/28 09:03:59;;;;;;;1.38;0.30;;;28.90;99.90;;;;;;4103025;28;20210;-92
2023/08/28 09:06:01;;;;;;;0.20;0.20;;;29.20;99.90;;;;;;4103239;28;20255;-94
2023/08/28 09:08:05;;;;;;;0.63;0.40;;;29.40;99.90;;;;;;4103339;28;20639;-91
2023/08/28 09:10:07;;;;;;;2.08;0.43;;;29.40;99.90;;;;;;4102084;28;20167;-92
2023/08/28 09:12:08;;;;;;;0.50;0.30;;;29.80;99.90;;;;;;4102148;28;20203;-92
2023/08/28 09:14:09;;;;;;;0.60;0.50;;;29.10;99.90;;;;;;4120620;28;20177;-92
2023/08/28 09:16:10;;;;;;;0.40;0.40;;;28.30;99.90;;;;;;4103735;28;20175;-92
2023/08/28 09:18:11;;;;;;;0.40;0.28;;;28.40;99.90;;;;;;4104099;28;20420;-91
2023/08/28 09:20:20;;;;;;;1.45;0.40;;;28.30;99.90;;;;;;4102224;28;20548;-92
2023/08/28 09:22:25;;;;;;;0.85;0.20;;;28.20;99.90;;;;;;4103027;28;20237;-92
2023/08/28 09:24:26;;;;;;;0.30;0.30;;;28.20;99.90;;;;;;4101993;28;20207;-93
2023/08/28 09:26:27;;;;;;;0.63;0.30;;;28.30;99.90;;;;;;4101975;29;20661;-91
2023/08/28 09:28:28;;;;;;;0.20;0.20;;;28.10;99.90;;;;;;4117679;28;20193;-93
2023/08/28 09:30:31;;;;;;;0.80;0.35;;;26.70;99.90;;;;;;4117061;28;20232;-91
2023/08/28 09:32:32;;;;;;;0.57;0.30;;;26.40;99.90;;;;;;4101140;28;20199;-92
2023/08/28 09:34:38;;;;;;;0.63;0.20;;;26.30;99.90;;;;;;4101078;28;20178;-92
2023/08/28 09:36:43;;;;;;;2.33;0.45;;;25.50;99.90;;;;;;4117576;28;20166;-92
2023/08/28 09:38:44;;;;;;;1.40;0.35;;;25.30;99.90;;;;;;4101463;28;20281;-92
2023/08/28 09:40:46;;;;;;;0.40;0.20;;;25.70;99.90;;;;;;4101446;29;20175;-92
2023/08/28 09:42:46;;;;;;;0.20;0.20;;;26.30;99.90;;;;;;4119145;28;20253;-93
2023/08/28 09:44:50;;;;;;;0.40;0.20;;;27.00;99.90;;;;;;4101958;28;20186;-91
2023/08/28 09:46:53;;;;;;;0.45;0.20;;;27.00;99.90;;;;;;4101098;29;20171;-92
2023/08/28 09:48:54;;;;;;;0.68;0.43;;;27.50;99.90;;;;;;4103246;28;20174;-93
2023/08/28 09:50:54;;;;;;;1.08;0.22;;;28.00;99.90;;;;;;4125539;28;20178;-95
2023/08/28 09:53:09;;;;;;;2.90;0.30;;;28.60;99.90;;;;;;4120955;28;20258;-92
2023/08/28 09:55:10;;;;;;;0.50;0.32;;;28.60;99.90;;;;;;4108364;28;20217;-93
2023/08/28 09:57:16;;;;;;;1.30;0.30;;;27.30;99.90;;;;;;4117381;28;20707;-93
2023/08/28 09:59:17;;;;;;;0.40;0.20;;;27.20;99.90;;;;;;4101227;28;20289;-92
2023/08/28 10:01:19;;;;;;;0.70;0.20;;;27.40;99.90;;;;;;4101118;28;20565;-93
2023/08/28 10:03:21;;;;;;;2.67;1.05;;;28.20;99.90;;;;;;4116907;28;20205;-92
2023/08/28 10:05:23;;;;;;;1.40;0.52;;;28.70;99.90;;;;;;4099457;28;20198;-92
2023/08/28 10:07:24;;;;;;;0.70;0.30;;;28.50;99.90;;;;;;4101049;28;20532;-93
2023/08/28 10:09:27;;;;;;;1.85;0.77;;;27.80;99.90;;;;;;4101084;29;20194;-93
2023/08/28 10:11:35;;;;;;;0.90;0.38;;;27.20;99.90;;;;;;4100895;28;20187;-93
2023/08/28 10:13:36;;;;;;;0.82;0.40;;;26.90;99.90;;;;;;4116833;28;20268;-91
2023/08/28 10:15:41;;;;;;;0.40;0.30;;;25.90;99.90;;;;;;4116974;28;20182;-92
2023/08/28 10:17:43;;;;;;;0.82;0.35;;;25.10;99.90;;;;;;4116875;28;20207;-92
2023/08/28 10:19:56;;;;;;;1.08;0.43;;;24.60;99.90;;;;;;4116674;28;20197;-93
2023/08/28 10:21:57;;;;;;;2.47;0.22;;;24.70;99.90;;;;;;4100751;28;20190;-91
2023/08/28 10:23:58;;;;;;;0.55;0.32;;;24.80;99.90;;;;;;4116513;28;20723;-91
2023/08/28 10:26:01;;;;;;;2.05;0.47;;;24.60;99.90;;;;;;4100412;28;20649;-93
2023/08/28 10:28:02;;;;;;;0.17;0.17;;;24.70;99.90;;;;;;4116629;28;20193;-92
2023/08/28 10:30:04;;;;;;;1.58;0.40;;;24.50;99.90;;;;;;4100459;29;20582;-93
2023/08/28 10:32:09;;;;;;;0.65;0.40;;;24.10;99.90;;;;;;4100585;28;20282;-91
2023/08/28 10:34:11;;;;;;;0.43;0.32;;;23.90;99.90;;;;;;4100499;28;20178;-92